sensor_id;sensor_type;location;lat;lon;timestamp;P1;durP1;ratioP1;P2;durP2;ratioP2
7171;SDS011;3627;46.544;14.944;2022-08-19T00:01:31;6.47;;;3.88;;
7171;SDS011;3627;46.544;14.944;2022-08-19T00:03:59;7.55;;;3.45;;
7171;SDS011;3627;46.544;14.944;2022-08-19T00:06:26;7.82;;;3.80;;
7171;SDS011;3627;46.544;14.944;2022-08-19T00:08:54;4.78;;;3.33;;
7171;SDS011;3627;46.544;14.944;2022-08-19T00:11:21;6.38;;;4.20;;
7171;SDS011;3627;46.544;14.944;2022-08-19T00:13:47;8.93;;;4.28;;
7171;SDS011;3627;46.544;14.944;2022-08-19T00:16:15;8.50;;;4.20;;
7171;SDS011;3627;46.544;14.944;2022-08-19T00:18:43;6.57;;;4.20;;
7171;SDS011;3627;46.544;14.944;2022-08-19T00:21:09;7.32;;;4.45;;
7171;SDS011;3627;46.544;14.944;2022-08-19T00:23:36;6.03;;;4.00;;
7171;SDS011;3627;46.544;14.944;2022-08-19T00:26:04;8.63;;;4.68;;
7171;SDS011;3627;46.544;14.944;2022-08-19T00:28:30;8.57;;;4.13;;
7171;SDS011;3627;46.544;14.944;2022-08-19T00:30:57;6.50;;;3.97;;
7171;SDS011;3627;46.544;14.944;2022-08-19T00:33:24;9.55;;;4.40;;
7171;SDS011;3627;46.544;14.944;2022-08-19T00:35:50;5.78;;;3.92;;
7171;SDS011;3627;46.544;14.944;2022-08-19T00:38:17;8.63;;;4.25;;
7171;SDS011;3627;46.544;14.944;2022-08-19T00:40:46;10.32;;;3.90;;
7171;SDS011;3627;46.544;14.944;2022-08-19T00:43:14;5.82;;;4.22;;
7171;SDS011;3627;46.544;14.944;2022-08-19T00:45:44;7.18;;;3.60;;
7171;SDS011;3627;46.544;14.944;2022-08-19T00:48:11;8.60;;;4.68;;
7171;SDS011;3627;46.544;14.944;2022-08-19T00:50:38;11.65;;;4.38;;
7171;SDS011;3627;46.544;14.944;2022-08-19T00:53:05;5.63;;;3.65;;
7171;SDS011;3627;46.544;14.944;2022-08-19T00:55:32;7.72;;;3.95;;
7171;SDS011;3627;46.544;14.944;2022-08-19T00:58:00;7.90;;;3.78;;
7171;SDS011;3627;46.544;14.944;2022-08-19T01:00:29;7.55;;;4.32;;
7171;SDS011;3627;46.544;14.944;2022-08-19T01:02:55;5.22;;;4.05;;
7171;SDS011;3627;46.544;14.944;2022-08-19T01:05:23;7.68;;;3.65;;
7171;SDS011;3627;46.544;14.944;2022-08-19T01:07:52;8.27;;;4.07;;
7171;SDS011;3627;46.544;14.944;2022-08-19T01:10:19;7.05;;;4.28;;
7171;SDS011;3627;46.544;14.944;2022-08-19T01:12:47;11.95;;;4.43;;
7171;SDS011;3627;46.544;14.944;2022-08-19T01:15:16;7.53;;;3.67;;
7171;SDS011;3627;46.544;14.944;2022-08-19T01:17:44;11.90;;;4.50;;
7171;SDS011;3627;46.544;14.944;2022-08-19T01:20:12;8.55;;;4.10;;
7171;SDS011;3627;46.544;14.944;2022-08-19T01:22:42;8.90;;;4.20;;
7171;SDS011;3627;46.544;14.944;2022-08-19T01:25:09;9.02;;;4.25;;
7171;SDS011;3627;46.544;14.944;2022-08-19T01:27:38;6.82;;;4.00;;
7171;SDS011;3627;46.544;14.944;2022-08-19T01:30:05;6.35;;;4.28;;
7171;SDS011;3627;46.544;14.944;2022-08-19T01:32:32;6.03;;;3.80;;
7171;SDS011;3627;46.544;14.944;2022-08-19T01:34:58;6.10;;;4.00;;
7171;SDS011;3627;46.544;14.944;2022-08-19T01:37:26;7.03;;;4.53;;
7171;SDS011;3627;46.544;14.944;2022-08-19T01:39:54;6.20;;;3.80;;
7171;SDS011;3627;46.544;14.944;2022-08-19T01:42:20;7.55;;;4.13;;
7171;SDS011;3627;46.544;14.944;2022-08-19T01:44:47;7.90;;;4.43;;
7171;SDS011;3627;46.544;14.944;2022-08-19T01:47:13;10.52;;;4.57;;
7171;SDS011;3627;46.544;14.944;2022-08-19T01:49:41;7.13;;;4.60;;
7171;SDS011;3627;46.544;14.944;2022-08-19T01:52:07;5.80;;;4.40;;
7171;SDS011;3627;46.544;14.944;2022-08-19T01:54:34;10.07;;;4.63;;
7171;SDS011;3627;46.544;14.944;2022-08-19T01:57:02;8.10;;;4.45;;
7171;SDS011;3627;46.544;14.944;2022-08-19T01:59:29;7.22;;;4.97;;
7171;SDS011;3627;46.544;14.944;2022-08-19T02:01:57;8.45;;;4.60;;
7171;SDS011;3627;46.544;14.944;2022-08-19T02:04:23;9.57;;;4.70;;
7171;SDS011;3627;46.544;14.944;2022-08-19T02:06:50;10.38;;;5.00;;
7171;SDS011;3627;46.544;14.944;2022-08-19T02:09:16;5.82;;;4.43;;
7171;SDS011;3627;46.544;14.944;2022-08-19T02:11:43;8.05;;;4.53;;
7171;SDS011;3627;46.544;14.944;2022-08-19T02:14:10;7.40;;;4.70;;
7171;SDS011;3627;46.544;14.944;2022-08-19T02:16:38;7.70;;;4.78;;
7171;SDS011;3627;46.544;14.944;2022-08-19T02:19:05;8.90;;;4.97;;
7171;SDS011;3627;46.544;14.944;2022-08-19T02:21:32;7.18;;;4.75;;
7171;SDS011;3627;46.544;14.944;2022-08-19T02:23:58;8.63;;;4.93;;
7171;SDS011;3627;46.544;14.944;2022-08-19T02:26:25;7.93;;;4.38;;
7171;SDS011;3627;46.544;14.944;2022-08-19T02:28:52;10.25;;;4.63;;
7171;SDS011;3627;46.544;14.944;2022-08-19T02:31:21;7.45;;;4.68;;
7171;SDS011;3627;46.544;14.944;2022-08-19T02:33:48;6.15;;;4.35;;
7171;SDS011;3627;46.544;14.944;2022-08-19T02:36:16;7.43;;;5.05;;
7171;SDS011;3627;46.544;14.944;2022-08-19T02:38:42;8.45;;;4.40;;
7171;SDS011;3627;46.544;14.944;2022-08-19T02:41:11;7.88;;;4.38;;
7171;SDS011;3627;46.544;14.944;2022-08-19T02:43:38;7.22;;;4.40;;
7171;SDS011;3627;46.544;14.944;2022-08-19T02:46:10;10.73;;;5.03;;
7171;SDS011;3627;46.544;14.944;2022-08-19T02:48:38;6.53;;;4.55;;
7171;SDS011;3627;46.544;14.944;2022-08-19T02:51:05;8.55;;;4.40;;
7171;SDS011;3627;46.544;14.944;2022-08-19T02:53:31;8.98;;;5.00;;
7171;SDS011;3627;46.544;14.944;2022-08-19T02:55:58;7.55;;;4.10;;
7171;SDS011;3627;46.544;14.944;2022-08-19T02:58:24;7.22;;;4.43;;
7171;SDS011;3627;46.544;14.944;2022-08-19T03:00:52;8.10;;;4.90;;
7171;SDS011;3627;46.544;14.944;2022-08-19T03:03:19;9.60;;;4.72;;
7171;SDS011;3627;46.544;14.944;2022-08-19T03:05:47;7.43;;;4.35;;
7171;SDS011;3627;46.544;14.944;2022-08-19T03:08:14;9.07;;;4.30;;
7171;SDS011;3627;46.544;14.944;2022-08-19T03:10:41;8.10;;;4.15;;
7171;SDS011;3627;46.544;14.944;2022-08-19T03:13:09;7.32;;;3.83;;
7171;SDS011;3627;46.544;14.944;2022-08-19T03:15:38;8.95;;;4.10;;
7171;SDS011;3627;46.544;14.944;2022-08-19T03:18:05;7.85;;;4.25;;
7171;SDS011;3627;46.544;14.944;2022-08-19T03:20:31;9.57;;;4.22;;
7171;SDS011;3627;46.544;14.944;2022-08-19T03:22:59;8.38;;;4.10;;
7171;SDS011;3627;46.544;14.944;2022-08-19T03:25:25;5.60;;;4.03;;
7171;SDS011;3627;46.544;14.944;2022-08-19T03:27:52;9.98;;;3.90;;
7171;SDS011;3627;46.544;14.944;2022-08-19T03:30:18;7.22;;;4.53;;
7171;SDS011;3627;46.544;14.944;2022-08-19T03:32:45;6.07;;;3.70;;
7171;SDS011;3627;46.544;14.944;2022-08-19T03:35:12;9.25;;;4.45;;
7171;SDS011;3627;46.544;14.944;2022-08-19T03:37:38;10.20;;;4.00;;
7171;SDS011;3627;46.544;14.944;2022-08-19T03:40:07;6.82;;;3.47;;
7171;SDS011;3627;46.544;14.944;2022-08-19T03:42:33;6.40;;;3.15;;
7171;SDS011;3627;46.544;14.944;2022-08-19T03:45:00;5.32;;;3.78;;
7171;SDS011;3627;46.544;14.944;2022-08-19T03:47:26;5.82;;;3.30;;
7171;SDS011;3627;46.544;14.944;2022-08-19T03:49:52;4.82;;;3.33;;
7171;SDS011;3627;46.544;14.944;2022-08-19T03:52:19;5.13;;;3.40;;
7171;SDS011;3627;46.544;14.944;2022-08-19T03:54:46;7.80;;;3.58;;
7171;SDS011;3627;46.544;14.944;2022-08-19T03:57:13;5.85;;;3.08;;
7171;SDS011;3627;46.544;14.944;2022-08-19T03:59:40;6.65;;;3.28;;
7171;SDS011;3627;46.544;14.944;2022-08-19T04:02:07;9.77;;;3.85;;
7171;SDS011;3627;46.544;14.944;2022-08-19T04:04:34;6.10;;;3.00;;
7171;SDS011;3627;46.544;14.944;2022-08-19T04:07:01;5.15;;;3.35;;
7171;SDS011;3627;46.544;14.944;2022-08-19T04:09:27;5.45;;;3.10;;
7171;SDS011;3627;46.544;14.944;2022-08-19T04:11:54;5.63;;;3.20;;
7171;SDS011;3627;46.544;14.944;2022-08-19T04:14:23;5.40;;;3.40;;
7171;SDS011;3627;46.544;14.944;2022-08-19T04:16:50;4.75;;;3.13;;
7171;SDS011;3627;46.544;14.944;2022-08-19T04:19:17;7.10;;;3.30;;
7171;SDS011;3627;46.544;14.944;2022-08-19T04:21:43;6.53;;;3.20;;
7171;SDS011;3627;46.544;14.944;2022-08-19T04:24:10;5.90;;;3.05;;
7171;SDS011;3627;46.544;14.944;2022-08-19T04:26:37;4.40;;;3.35;;
7171;SDS011;3627;46.544;14.944;2022-08-19T04:29:06;6.88;;;3.20;;
7171;SDS011;3627;46.544;14.944;2022-08-19T04:31:34;4.05;;;3.60;;
7171;SDS011;3627;46.544;14.944;2022-08-19T04:34:02;5.53;;;2.95;;
7171;SDS011;3627;46.544;14.944;2022-08-19T04:36:29;6.38;;;3.00;;
7171;SDS011;3627;46.544;14.944;2022-08-19T04:38:57;4.97;;;3.15;;
7171;SDS011;3627;46.544;14.944;2022-08-19T04:41:24;4.25;;;2.65;;
7171;SDS011;3627;46.544;14.944;2022-08-19T04:44:08;6.97;;;2.80;;
7171;SDS011;3627;46.544;14.944;2022-08-19T04:46:36;8.07;;;3.78;;
7171;SDS011;3627;46.544;14.944;2022-08-19T04:49:03;8.07;;;3.28;;
7171;SDS011;3627;46.544;14.944;2022-08-19T04:51:30;6.90;;;3.22;;
7171;SDS011;3627;46.544;14.944;2022-08-19T04:53:57;5.57;;;3.40;;
7171;SDS011;3627;46.544;14.944;2022-08-19T04:56:25;7.30;;;3.17;;
7171;SDS011;3627;46.544;14.944;2022-08-19T04:58:52;6.18;;;3.38;;
7171;SDS011;3627;46.544;14.944;2022-08-19T05:01:19;4.10;;;3.20;;
7171;SDS011;3627;46.544;14.944;2022-08-19T05:03:47;6.13;;;3.05;;
7171;SDS011;3627;46.544;14.944;2022-08-19T05:06:15;5.95;;;3.28;;
7171;SDS011;3627;46.544;14.944;2022-08-19T05:08:41;9.57;;;3.63;;
7171;SDS011;3627;46.544;14.944;2022-08-19T05:11:09;5.05;;;3.20;;
7171;SDS011;3627;46.544;14.944;2022-08-19T05:13:36;8.18;;;3.78;;
7171;SDS011;3627;46.544;14.944;2022-08-19T05:16:03;6.20;;;2.97;;
7171;SDS011;3627;46.544;14.944;2022-08-19T05:18:30;5.85;;;3.40;;
7171;SDS011;3627;46.544;14.944;2022-08-19T05:21:15;5.80;;;3.00;;
7171;SDS011;3627;46.544;14.944;2022-08-19T05:24:00;6.40;;;2.90;;
7171;SDS011;3627;46.544;14.944;2022-08-19T05:26:27;6.55;;;3.15;;
7171;SDS011;3627;46.544;14.944;2022-08-19T05:28:53;5.30;;;2.92;;
7171;SDS011;3627;46.544;14.944;2022-08-19T05:31:20;6.07;;;3.17;;
7171;SDS011;3627;46.544;14.944;2022-08-19T05:33:46;5.28;;;3.20;;
7171;SDS011;3627;46.544;14.944;2022-08-19T05:36:16;5.50;;;2.92;;
7171;SDS011;3627;46.544;14.944;2022-08-19T05:38:45;4.35;;;3.03;;
7171;SDS011;3627;46.544;14.944;2022-08-19T05:41:12;6.45;;;3.38;;
7171;SDS011;3627;46.544;14.944;2022-08-19T05:43:39;3.38;;;2.65;;
7171;SDS011;3627;46.544;14.944;2022-08-19T05:46:06;6.22;;;3.30;;
7171;SDS011;3627;46.544;14.944;2022-08-19T05:48:33;4.78;;;3.13;;
7171;SDS011;3627;46.544;14.944;2022-08-19T05:51:03;5.20;;;2.95;;
7171;SDS011;3627;46.544;14.944;2022-08-19T05:53:31;5.63;;;3.05;;
7171;SDS011;3627;46.544;14.944;2022-08-19T05:56:02;4.25;;;2.75;;
7171;SDS011;3627;46.544;14.944;2022-08-19T05:58:29;5.05;;;3.03;;
7171;SDS011;3627;46.544;14.944;2022-08-19T06:00:55;4.38;;;2.67;;
7171;SDS011;3627;46.544;14.944;2022-08-19T06:03:22;3.75;;;2.63;;
7171;SDS011;3627;46.544;14.944;2022-08-19T06:05:49;8.60;;;3.40;;
7171;SDS011;3627;46.544;14.944;2022-08-19T06:08:15;5.72;;;2.70;;
7171;SDS011;3627;46.544;14.944;2022-08-19T06:10:44;6.90;;;3.15;;
7171;SDS011;3627;46.544;14.944;2022-08-19T06:13:11;6.47;;;2.70;;
7171;SDS011;3627;46.544;14.944;2022-08-19T06:15:37;5.43;;;2.95;;
7171;SDS011;3627;46.544;14.944;2022-08-19T06:18:03;5.63;;;3.00;;
7171;SDS011;3627;46.544;14.944;2022-08-19T06:20:30;5.32;;;2.65;;
7171;SDS011;3627;46.544;14.944;2022-08-19T06:22:57;7.53;;;2.90;;
7171;SDS011;3627;46.544;14.944;2022-08-19T06:25:24;4.70;;;2.70;;
7171;SDS011;3627;46.544;14.944;2022-08-19T06:27:51;8.90;;;3.25;;
7171;SDS011;3627;46.544;14.944;2022-08-19T06:30:18;4.32;;;2.60;;
7171;SDS011;3627;46.544;14.944;2022-08-19T06:32:45;3.83;;;2.40;;
7171;SDS011;3627;46.544;14.944;2022-08-19T06:35:11;5.82;;;2.78;;
7171;SDS011;3627;46.544;14.944;2022-08-19T06:37:39;4.72;;;2.85;;
7171;SDS011;3627;46.544;14.944;2022-08-19T06:40:06;4.10;;;2.72;;
7171;SDS011;3627;46.544;14.944;2022-08-19T06:42:33;4.18;;;2.40;;
7171;SDS011;3627;46.544;14.944;2022-08-19T06:45:01;5.13;;;2.40;;
7171;SDS011;3627;46.544;14.944;2022-08-19T06:47:29;6.22;;;2.60;;
7171;SDS011;3627;46.544;14.944;2022-08-19T06:49:56;3.10;;;2.58;;
7171;SDS011;3627;46.544;14.944;2022-08-19T06:52:25;2.80;;;2.28;;
7171;SDS011;3627;46.544;14.944;2022-08-19T06:54:52;5.85;;;2.63;;
7171;SDS011;3627;46.544;14.944;2022-08-19T06:57:19;4.13;;;2.50;;
7171;SDS011;3627;46.544;14.944;2022-08-19T06:59:46;3.30;;;2.33;;
7171;SDS011;3627;46.544;14.944;2022-08-19T07:02:14;5.20;;;2.60;;
7171;SDS011;3627;46.544;14.944;2022-08-19T07:04:40;6.05;;;2.55;;
7171;SDS011;3627;46.544;14.944;2022-08-19T07:07:08;3.03;;;2.40;;
7171;SDS011;3627;46.544;14.944;2022-08-19T07:09:35;2.67;;;2.20;;
7171;SDS011;3627;46.544;14.944;2022-08-19T07:12:03;3.45;;;2.60;;
7171;SDS011;3627;46.544;14.944;2022-08-19T07:14:31;5.80;;;2.45;;
7171;SDS011;3627;46.544;14.944;2022-08-19T07:17:03;3.03;;;2.30;;
7171;SDS011;3627;46.544;14.944;2022-08-19T07:19:31;2.50;;;2.13;;
7171;SDS011;3627;46.544;14.944;2022-08-19T07:21:57;3.75;;;2.35;;
7171;SDS011;3627;46.544;14.944;2022-08-19T07:24:25;3.85;;;2.40;;
7171;SDS011;3627;46.544;14.944;2022-08-19T07:26:53;2.95;;;2.50;;
7171;SDS011;3627;46.544;14.944;2022-08-19T07:29:20;4.32;;;2.55;;
7171;SDS011;3627;46.544;14.944;2022-08-19T07:31:48;4.93;;;2.28;;
7171;SDS011;3627;46.544;14.944;2022-08-19T07:34:14;9.68;;;2.55;;
7171;SDS011;3627;46.544;14.944;2022-08-19T07:36:43;3.42;;;2.00;;
7171;SDS011;3627;46.544;14.944;2022-08-19T07:39:13;3.58;;;2.40;;
7171;SDS011;3627;46.544;14.944;2022-08-19T07:41:40;2.45;;;2.20;;
7171;SDS011;3627;46.544;14.944;2022-08-19T07:44:07;4.50;;;1.98;;
7171;SDS011;3627;46.544;14.944;2022-08-19T07:46:35;4.22;;;1.90;;
7171;SDS011;3627;46.544;14.944;2022-08-19T07:49:02;2.75;;;1.98;;
7171;SDS011;3627;46.544;14.944;2022-08-19T07:51:29;2.90;;;1.70;;
7171;SDS011;3627;46.544;14.944;2022-08-19T07:53:57;3.35;;;2.08;;
7171;SDS011;3627;46.544;14.944;2022-08-19T07:56:23;5.05;;;1.67;;
7171;SDS011;3627;46.544;14.944;2022-08-19T07:58:50;2.60;;;1.80;;
7171;SDS011;3627;46.544;14.944;2022-08-19T08:01:18;1.90;;;1.40;;
7171;SDS011;3627;46.544;14.944;2022-08-19T08:03:45;5.40;;;2.03;;
7171;SDS011;3627;46.544;14.944;2022-08-19T08:06:29;4.10;;;2.10;;
7171;SDS011;3627;46.544;14.944;2022-08-19T08:09:16;3.42;;;2.17;;
7171;SDS011;3627;46.544;14.944;2022-08-19T08:11:47;7.38;;;2.42;;
7171;SDS011;3627;46.544;14.944;2022-08-19T08:14:14;6.78;;;2.15;;
7171;SDS011;3627;46.544;14.944;2022-08-19T08:16:41;6.22;;;2.08;;
7171;SDS011;3627;46.544;14.944;2022-08-19T08:19:08;3.55;;;1.80;;
7171;SDS011;3627;46.544;14.944;2022-08-19T08:21:35;5.38;;;2.10;;
7171;SDS011;3627;46.544;14.944;2022-08-19T08:24:01;4.25;;;1.80;;
7171;SDS011;3627;46.544;14.944;2022-08-19T08:26:30;3.30;;;1.80;;
7171;SDS011;3627;46.544;14.944;2022-08-19T08:28:56;4.43;;;1.88;;
7171;SDS011;3627;46.544;14.944;2022-08-19T08:31:23;5.57;;;1.90;;
7171;SDS011;3627;46.544;14.944;2022-08-19T08:33:50;5.82;;;2.25;;
7171;SDS011;3627;46.544;14.944;2022-08-19T08:36:16;2.63;;;1.77;;
7171;SDS011;3627;46.544;14.944;2022-08-19T08:38:43;2.25;;;1.60;;
7171;SDS011;3627;46.544;14.944;2022-08-19T08:41:13;3.17;;;1.55;;
7171;SDS011;3627;46.544;14.944;2022-08-19T08:43:46;2.83;;;1.63;;
7171;SDS011;3627;46.544;14.944;2022-08-19T08:46:15;2.05;;;1.42;;
7171;SDS011;3627;46.544;14.944;2022-08-19T08:48:44;4.53;;;1.52;;
7171;SDS011;3627;46.544;14.944;2022-08-19T08:51:14;3.35;;;1.50;;
7171;SDS011;3627;46.544;14.944;2022-08-19T08:53:41;4.68;;;1.80;;
7171;SDS011;3627;46.544;14.944;2022-08-19T08:56:08;2.30;;;1.25;;
7171;SDS011;3627;46.544;14.944;2022-08-19T08:58:41;4.63;;;1.20;;
7171;SDS011;3627;46.544;14.944;2022-08-19T09:01:10;1.23;;;1.10;;
7171;SDS011;3627;46.544;14.944;2022-08-19T09:03:37;2.97;;;1.13;;
7171;SDS011;3627;46.544;14.944;2022-08-19T09:06:06;2.55;;;1.35;;
7171;SDS011;3627;46.544;14.944;2022-08-19T09:08:36;2.83;;;1.50;;
7171;SDS011;3627;46.544;14.944;2022-08-19T09:11:06;1.90;;;1.60;;
7171;SDS011;3627;46.544;14.944;2022-08-19T09:13:36;3.75;;;1.52;;
7171;SDS011;3627;46.544;14.944;2022-08-19T09:16:06;1.55;;;1.27;;
7171;SDS011;3627;46.544;14.944;2022-08-19T09:18:39;2.25;;;1.48;;
7171;SDS011;3627;46.544;14.944;2022-08-19T09:21:06;2.97;;;1.50;;
7171;SDS011;3627;46.544;14.944;2022-08-19T09:23:33;1.65;;;1.30;;
7171;SDS011;3627;46.544;14.944;2022-08-19T09:26:00;3.38;;;1.70;;
7171;SDS011;3627;46.544;14.944;2022-08-19T09:28:26;3.80;;;1.40;;
7171;SDS011;3627;46.544;14.944;2022-08-19T09:30:54;2.20;;;1.38;;
7171;SDS011;3627;46.544;14.944;2022-08-19T09:33:20;1.48;;;1.30;;
7171;SDS011;3627;46.544;14.944;2022-08-19T09:35:48;2.78;;;1.33;;
7171;SDS011;3627;46.544;14.944;2022-08-19T09:38:15;4.20;;;1.42;;
7171;SDS011;3627;46.544;14.944;2022-08-19T09:40:41;1.75;;;1.30;;
7171;SDS011;3627;46.544;14.944;2022-08-19T09:43:07;3.25;;;1.60;;
7171;SDS011;3627;46.544;14.944;2022-08-19T09:45:35;4.97;;;1.70;;
7171;SDS011;3627;46.544;14.944;2022-08-19T09:48:02;2.00;;;1.52;;
7171;SDS011;3627;46.544;14.944;2022-08-19T09:50:28;2.90;;;1.63;;
7171;SDS011;3627;46.544;14.944;2022-08-19T09:52:58;3.40;;;1.52;;
7171;SDS011;3627;46.544;14.944;2022-08-19T09:55:25;3.95;;;1.70;;
7171;SDS011;3627;46.544;14.944;2022-08-19T09:57:54;3.90;;;1.80;;
7171;SDS011;3627;46.544;14.944;2022-08-19T10:00:21;4.28;;;1.90;;
7171;SDS011;3627;46.544;14.944;2022-08-19T10:02:47;2.33;;;1.63;;
7171;SDS011;3627;46.544;14.944;2022-08-19T10:05:14;4.07;;;1.83;;
7171;SDS011;3627;46.544;14.944;2022-08-19T10:07:59;3.55;;;1.70;;
7171;SDS011;3627;46.544;14.944;2022-08-19T10:10:26;3.78;;;1.80;;
7171;SDS011;3627;46.544;14.944;2022-08-19T10:12:52;3.85;;;1.73;;
7171;SDS011;3627;46.544;14.944;2022-08-19T10:15:20;4.45;;;1.83;;
7171;SDS011;3627;46.544;14.944;2022-08-19T10:17:46;6.53;;;2.35;;
7171;SDS011;3627;46.544;14.944;2022-08-19T10:20:13;2.30;;;1.60;;
7171;SDS011;3627;46.544;14.944;2022-08-19T10:22:39;3.83;;;1.83;;
7171;SDS011;3627;46.544;14.944;2022-08-19T10:25:08;4.38;;;2.08;;
7171;SDS011;3627;46.544;14.944;2022-08-19T10:27:35;3.20;;;1.73;;
7171;SDS011;3627;46.544;14.944;2022-08-19T10:30:03;2.13;;;1.52;;
7171;SDS011;3627;46.544;14.944;2022-08-19T10:32:30;1.95;;;1.48;;
7171;SDS011;3627;46.544;14.944;2022-08-19T10:34:56;4.78;;;1.50;;
7171;SDS011;3627;46.544;14.944;2022-08-19T10:37:23;2.47;;;1.45;;
7171;SDS011;3627;46.544;14.944;2022-08-19T10:39:49;2.58;;;1.73;;
7171;SDS011;3627;46.544;14.944;2022-08-19T10:42:17;4.00;;;1.58;;
7171;SDS011;3627;46.544;14.944;2022-08-19T10:44:44;4.45;;;2.13;;
7171;SDS011;3627;46.544;14.944;2022-08-19T10:47:11;4.43;;;1.85;;
7171;SDS011;3627;46.544;14.944;2022-08-19T10:49:38;5.05;;;2.22;;
7171;SDS011;3627;46.544;14.944;2022-08-19T10:52:24;5.07;;;2.22;;
7171;SDS011;3627;46.544;14.944;2022-08-19T10:54:58;5.40;;;3.58;;
7171;SDS011;3627;46.544;14.944;2022-08-19T10:57:43;2.85;;;2.33;;
7171;SDS011;3627;46.544;14.944;2022-08-19T11:00:10;4.43;;;2.20;;
7171;SDS011;3627;46.544;14.944;2022-08-19T11:02:37;3.05;;;2.05;;
7171;SDS011;3627;46.544;14.944;2022-08-19T11:05:04;2.75;;;2.28;;
7171;SDS011;3627;46.544;14.944;2022-08-19T11:07:31;4.20;;;2.15;;
7171;SDS011;3627;46.544;14.944;2022-08-19T11:09:58;4.03;;;2.05;;
7171;SDS011;3627;46.544;14.944;2022-08-19T11:12:24;2.35;;;2.05;;
7171;SDS011;3627;46.544;14.944;2022-08-19T11:14:54;3.20;;;2.03;;
7171;SDS011;3627;46.544;14.944;2022-08-19T11:17:20;2.75;;;2.00;;
7171;SDS011;3627;46.544;14.944;2022-08-19T11:19:48;2.38;;;1.63;;
7171;SDS011;3627;46.544;14.944;2022-08-19T11:22:15;2.08;;;1.80;;
7171;SDS011;3627;46.544;14.944;2022-08-19T11:24:42;6.15;;;2.20;;
7171;SDS011;3627;46.544;14.944;2022-08-19T11:27:10;3.50;;;2.10;;
7171;SDS011;3627;46.544;14.944;2022-08-19T11:29:37;4.50;;;2.10;;
7171;SDS011;3627;46.544;14.944;2022-08-19T11:32:06;4.93;;;1.95;;
7171;SDS011;3627;46.544;14.944;2022-08-19T11:34:33;5.07;;;2.28;;
7171;SDS011;3627;46.544;14.944;2022-08-19T11:37:00;3.78;;;1.98;;
7171;SDS011;3627;46.544;14.944;2022-08-19T11:39:28;6.15;;;2.30;;
7171;SDS011;3627;46.544;14.944;2022-08-19T11:41:55;3.40;;;2.05;;
7171;SDS011;3627;46.544;14.944;2022-08-19T11:44:21;5.38;;;2.40;;
7171;SDS011;3627;46.544;14.944;2022-08-19T11:46:48;4.72;;;2.40;;
7171;SDS011;3627;46.544;14.944;2022-08-19T11:49:16;7.13;;;2.53;;
7171;SDS011;3627;46.544;14.944;2022-08-19T11:51:44;4.57;;;2.50;;
7171;SDS011;3627;46.544;14.944;2022-08-19T11:54:11;5.43;;;2.45;;
7171;SDS011;3627;46.544;14.944;2022-08-19T11:56:38;4.65;;;2.92;;
7171;SDS011;3627;46.544;14.944;2022-08-19T11:59:04;5.05;;;2.53;;
7171;SDS011;3627;46.544;14.944;2022-08-19T12:01:32;5.22;;;2.40;;
7171;SDS011;3627;46.544;14.944;2022-08-19T12:03:58;5.50;;;2.75;;
7171;SDS011;3627;46.544;14.944;2022-08-19T12:06:27;5.72;;;2.70;;
7171;SDS011;3627;46.544;14.944;2022-08-19T12:08:54;7.03;;;3.13;;
7171;SDS011;3627;46.544;14.944;2022-08-19T12:11:21;7.03;;;2.65;;
7171;SDS011;3627;46.544;14.944;2022-08-19T12:13:47;3.92;;;2.47;;
7171;SDS011;3627;46.544;14.944;2022-08-19T12:16:15;5.45;;;2.67;;
7171;SDS011;3627;46.544;14.944;2022-08-19T12:18:42;8.40;;;3.00;;
7171;SDS011;3627;46.544;14.944;2022-08-19T12:21:10;8.77;;;2.67;;
7171;SDS011;3627;46.544;14.944;2022-08-19T12:23:40;6.97;;;2.60;;
7171;SDS011;3627;46.544;14.944;2022-08-19T12:26:06;11.35;;;3.42;;
7171;SDS011;3627;46.544;14.944;2022-08-19T12:28:33;7.00;;;2.92;;
7171;SDS011;3627;46.544;14.944;2022-08-19T12:30:59;8.98;;;3.33;;
7171;SDS011;3627;46.544;14.944;2022-08-19T12:33:25;11.45;;;3.60;;
7171;SDS011;3627;46.544;14.944;2022-08-19T12:35:53;8.35;;;2.90;;
7171;SDS011;3627;46.544;14.944;2022-08-19T12:38:20;7.63;;;2.83;;
7171;SDS011;3627;46.544;14.944;2022-08-19T12:40:50;6.18;;;3.00;;
7171;SDS011;3627;46.544;14.944;2022-08-19T12:43:17;7.07;;;3.00;;
7171;SDS011;3627;46.544;14.944;2022-08-19T12:45:45;8.15;;;2.97;;
7171;SDS011;3627;46.544;14.944;2022-08-19T12:48:12;7.95;;;3.45;;
7171;SDS011;3627;46.544;14.944;2022-08-19T12:50:39;8.23;;;3.72;;
7171;SDS011;3627;46.544;14.944;2022-08-19T12:53:05;8.07;;;3.25;;
7171;SDS011;3627;46.544;14.944;2022-08-19T12:55:32;6.50;;;3.38;;
7171;SDS011;3627;46.544;14.944;2022-08-19T12:58:00;6.97;;;3.47;;
7171;SDS011;3627;46.544;14.944;2022-08-19T13:00:27;10.48;;;3.25;;
7171;SDS011;3627;46.544;14.944;2022-08-19T13:02:55;9.05;;;3.13;;
7171;SDS011;3627;46.544;14.944;2022-08-19T13:05:23;9.25;;;3.25;;
7171;SDS011;3627;46.544;14.944;2022-08-19T13:07:50;7.60;;;3.00;;
7171;SDS011;3627;46.544;14.944;2022-08-19T13:10:18;10.95;;;3.75;;
7171;SDS011;3627;46.544;14.944;2022-08-19T13:12:46;11.15;;;3.35;;
7171;SDS011;3627;46.544;14.944;2022-08-19T13:15:15;9.25;;;3.08;;
7171;SDS011;3627;46.544;14.944;2022-08-19T13:17:43;6.75;;;3.10;;
7171;SDS011;3627;46.544;14.944;2022-08-19T13:20:10;6.30;;;3.13;;
7171;SDS011;3627;46.544;14.944;2022-08-19T13:22:37;8.95;;;3.53;;
7171;SDS011;3627;46.544;14.944;2022-08-19T13:25:04;8.40;;;3.47;;
7171;SDS011;3627;46.544;14.944;2022-08-19T13:27:31;8.38;;;2.80;;
7171;SDS011;3627;46.544;14.944;2022-08-19T13:29:57;10.07;;;3.03;;
7171;SDS011;3627;46.544;14.944;2022-08-19T13:32:43;5.90;;;2.45;;
7171;SDS011;3627;46.544;14.944;2022-08-19T13:35:27;10.40;;;2.80;;
7171;SDS011;3627;46.544;14.944;2022-08-19T13:37:54;7.47;;;2.67;;
7171;SDS011;3627;46.544;14.944;2022-08-19T13:40:22;5.00;;;2.63;;
7171;SDS011;3627;46.544;14.944;2022-08-19T13:42:49;8.50;;;3.05;;
7171;SDS011;3627;46.544;14.944;2022-08-19T13:45:16;5.97;;;2.45;;
7171;SDS011;3627;46.544;14.944;2022-08-19T13:47:46;4.82;;;2.58;;
7171;SDS011;3627;46.544;14.944;2022-08-19T13:50:13;5.07;;;2.58;;
7171;SDS011;3627;46.544;14.944;2022-08-19T13:52:40;4.22;;;1.80;;
7171;SDS011;3627;46.544;14.944;2022-08-19T13:55:07;5.40;;;2.25;;
7171;SDS011;3627;46.544;14.944;2022-08-19T13:57:34;5.15;;;2.00;;
7171;SDS011;3627;46.544;14.944;2022-08-19T14:00:04;4.50;;;2.20;;
7171;SDS011;3627;46.544;14.944;2022-08-19T14:02:31;4.45;;;2.38;;
7171;SDS011;3627;46.544;14.944;2022-08-19T14:04:59;3.45;;;1.83;;
7171;SDS011;3627;46.544;14.944;2022-08-19T14:07:25;3.03;;;2.00;;
7171;SDS011;3627;46.544;14.944;2022-08-19T14:09:52;3.60;;;1.70;;
7171;SDS011;3627;46.544;14.944;2022-08-19T14:12:19;3.80;;;1.90;;
7171;SDS011;3627;46.544;14.944;2022-08-19T14:17:43;3.85;;;1.88;;
7171;SDS011;3627;46.544;14.944;2022-08-19T14:20:22;9.38;;;2.50;;
7171;SDS011;3627;46.544;14.944;2022-08-19T14:22:56;15.63;;;4.07;;
7171;SDS011;3627;46.544;14.944;2022-08-19T14:25:28;9.30;;;4.35;;
7171;SDS011;3627;46.544;14.944;2022-08-19T14:27:55;11.73;;;4.15;;
7171;SDS011;3627;46.544;14.944;2022-08-19T14:33:02;13.07;;;4.07;;
7171;SDS011;3627;46.544;14.944;2022-08-19T14:33:18;12.13;;;3.85;;
7171;SDS011;3627;46.544;14.944;2022-08-19T14:35:46;7.32;;;3.75;;
7171;SDS011;3627;46.544;14.944;2022-08-19T14:38:14;9.07;;;3.53;;
7171;SDS011;3627;46.544;14.944;2022-08-19T14:40:41;6.65;;;2.70;;
7171;SDS011;3627;46.544;14.944;2022-08-19T14:43:08;5.90;;;2.67;;
7171;SDS011;3627;46.544;14.944;2022-08-19T14:45:35;4.70;;;2.53;;
7171;SDS011;3627;46.544;14.944;2022-08-19T14:48:02;6.07;;;2.75;;
7171;SDS011;3627;46.544;14.944;2022-08-19T14:50:29;4.68;;;2.63;;
7171;SDS011;3627;46.544;14.944;2022-08-19T14:53:00;6.10;;;2.83;;
7171;SDS011;3627;46.544;14.944;2022-08-19T14:55:27;4.53;;;2.60;;
7171;SDS011;3627;46.544;14.944;2022-08-19T14:57:54;7.38;;;3.70;;
7171;SDS011;3627;46.544;14.944;2022-08-19T15:00:20;5.65;;;2.97;;
7171;SDS011;3627;46.544;14.944;2022-08-19T15:02:48;4.72;;;2.80;;
7171;SDS011;3627;46.544;14.944;2022-08-19T15:05:14;4.32;;;2.53;;
7171;SDS011;3627;46.544;14.944;2022-08-19T15:07:41;4.65;;;2.50;;